createdAt,value
2023-08-26T00:01:42.636Z,21.60
2023-08-26T00:04:10.036Z,21.60
2023-08-26T00:06:37.688Z,21.60
2023-08-26T00:09:05.374Z,21.60
2023-08-26T00:11:32.735Z,21.60
2023-08-26T00:14:00.077Z,21.60
2023-08-26T00:16:27.511Z,21.60
2023-08-26T00:18:56.804Z,21.70
2023-08-26T00:21:24.209Z,21.60
2023-08-26T00:23:51.592Z,21.70
2023-08-26T00:26:19.028Z,21.70
2023-08-26T00:28:46.861Z,21.70
2023-08-26T00:31:14.455Z,21.70
2023-08-26T00:33:41.857Z,21.60
2023-08-26T00:36:11.190Z,21.60
2023-08-26T00:38:38.647Z,21.70
2023-08-26T00:41:06.070Z,21.60
2023-08-26T00:43:34.676Z,21.70
2023-08-26T00:46:02.382Z,21.60
2023-08-26T00:48:29.874Z,21.60
2023-08-26T00:50:57.588Z,21.60
2023-08-26T00:53:26.401Z,21.60
2023-08-26T00:55:54.029Z,21.60
2023-08-26T00:58:21.839Z,21.60
2023-08-26T01:00:50.073Z,21.60
2023-08-26T01:03:17.566Z,21.60
2023-08-26T01:05:45.444Z,21.60
2023-08-26T01:08:14.486Z,21.60
2023-08-26T01:10:56.132Z,21.50
2023-08-26T01:13:29.497Z,21.50
2023-08-26T01:15:58.839Z,21.50
2023-08-26T01:18:26.714Z,21.50
2023-08-26T01:20:55.257Z,21.50
2023-08-26T01:23:33.973Z,21.50
2023-08-26T01:26:01.986Z,21.50
2023-08-26T01:28:29.298Z,21.50
2023-08-26T01:30:59.491Z,21.50
2023-08-26T01:33:32.646Z,21.50
2023-08-26T01:36:04.114Z,21.40
2023-08-26T01:38:33.558Z,21.40
2023-08-26T01:41:03.549Z,21.40
2023-08-26T01:43:34.691Z,21.40
2023-08-26T01:46:02.109Z,21.30
2023-08-26T01:48:29.468Z,21.30
2023-08-26T01:50:57.092Z,21.40
2023-08-26T01:53:24.479Z,21.30
2023-08-26T01:55:53.213Z,21.30
2023-08-26T01:58:20.998Z,21.30
2023-08-26T02:00:49.070Z,21.30
2023-08-26T02:03:16.459Z,21.30
2023-08-26T02:05:43.941Z,21.20
2023-08-26T02:08:11.258Z,21.20
2023-08-26T02:10:38.550Z,21.20
2023-08-26T02:13:07.173Z,21.20
2023-08-26T02:15:35.796Z,21.20
2023-08-26T02:18:03.316Z,21.10
2023-08-26T02:20:30.631Z,21.10
2023-08-26T02:22:58.123Z,21.10
2023-08-26T02:25:28.600Z,21.10
2023-08-26T02:27:57.057Z,21.10
2023-08-26T02:30:26.043Z,21.10
2023-08-26T02:32:53.425Z,21.00
2023-08-26T02:35:20.798Z,21.00
2023-08-26T02:37:48.089Z,21.00
2023-08-26T02:40:15.478Z,21.00
2023-08-26T02:42:42.837Z,21.00
2023-08-26T02:45:10.932Z,21.00
2023-08-26T02:47:39.613Z,21.00
2023-08-26T02:50:07.645Z,21.00
2023-08-26T02:52:35.203Z,21.00
2023-08-26T02:55:02.632Z,21.00
2023-08-26T02:57:29.986Z,20.90
2023-08-26T02:59:57.264Z,20.90
2023-08-26T03:02:26.123Z,20.90
2023-08-26T03:04:56.192Z,20.80
2023-08-26T03:07:23.559Z,20.80
2023-08-26T03:09:51.104Z,20.70
2023-08-26T03:12:18.530Z,20.70
2023-08-26T03:14:45.963Z,20.70
2023-08-26T03:17:13.241Z,20.70
2023-08-26T03:19:42.035Z,20.60
2023-08-26T03:22:10.711Z,20.60
2023-08-26T03:24:39.300Z,20.60
2023-08-26T03:27:06.778Z,20.60
2023-08-26T03:29:34.110Z,20.60
2023-08-26T03:32:01.504Z,20.60
2023-08-26T03:34:30.373Z,20.60
2023-08-26T03:36:57.829Z,20.60
2023-08-26T03:39:26.479Z,20.60
2023-08-26T03:41:54.060Z,20.60
2023-08-26T03:44:21.465Z,20.50
2023-08-26T03:46:49.915Z,20.50
2023-08-26T03:49:17.273Z,20.60
2023-08-26T03:51:44.852Z,20.60
2023-08-26T03:54:12.360Z,20.50
2023-08-26T03:56:41.091Z,20.50
2023-08-26T03:59:09.223Z,20.50
2023-08-26T04:01:39.125Z,20.50
2023-08-26T04:04:06.998Z,20.50
2023-08-26T04:06:34.730Z,20.50
2023-08-26T04:09:03.649Z,20.50
2023-08-26T04:11:31.360Z,20.50
2023-08-26T04:14:01.133Z,20.40
2023-08-26T04:16:29.732Z,20.50
2023-08-26T04:18:57.131Z,20.50
2023-08-26T04:21:24.504Z,20.40
2023-08-26T04:23:51.810Z,20.40
2023-08-26T04:26:19.188Z,20.40
2023-08-26T04:28:47.409Z,20.40
2023-08-26T04:31:16.095Z,20.40
2023-08-26T04:33:45.352Z,20.50
2023-08-26T04:36:15.953Z,20.50
2023-08-26T04:38:43.253Z,20.40
2023-08-26T04:41:10.902Z,20.40
2023-08-26T04:43:38.327Z,20.40
2023-08-26T04:46:06.502Z,20.40
2023-08-26T04:48:35.177Z,20.40
2023-08-26T04:51:05.365Z,20.50
2023-08-26T04:53:34.360Z,20.50
2023-08-26T04:56:01.942Z,20.50
2023-08-26T04:58:29.321Z,20.50
2023-08-26T05:00:56.823Z,20.50
2023-08-26T05:03:24.272Z,20.50
2023-08-26T05:05:53.124Z,20.50
2023-08-26T05:08:20.463Z,20.50
2023-08-26T05:10:47.787Z,20.50
2023-08-26T05:13:15.190Z,20.50
2023-08-26T05:15:42.587Z,20.50
2023-08-26T05:18:09.945Z,20.60
2023-08-26T05:20:37.453Z,20.60
2023-08-26T05:23:06.190Z,20.60
2023-08-26T05:25:33.514Z,20.60
2023-08-26T05:28:00.887Z,20.60
2023-08-26T05:30:30.046Z,20.60
2023-08-26T05:32:57.589Z,20.60
2023-08-26T05:35:26.772Z,20.60
2023-08-26T05:37:54.200Z,20.60
2023-08-26T05:40:27.904Z,20.60
2023-08-26T05:42:56.480Z,20.60
2023-08-26T05:45:25.396Z,20.70
2023-08-26T05:47:52.959Z,20.60
2023-08-26T05:50:21.572Z,20.70
2023-08-26T05:52:48.940Z,20.70
2023-08-26T05:55:16.772Z,20.70
2023-08-26T05:57:45.465Z,20.60
2023-08-26T06:00:14.341Z,20.70
2023-08-26T06:02:44.625Z,20.70
2023-08-26T06:05:15.498Z,20.70
2023-08-26T06:07:43.088Z,20.70
2023-08-26T06:10:11.091Z,20.70
2023-08-26T06:12:39.643Z,20.70
2023-08-26T06:15:12.045Z,20.70
2023-08-26T06:17:42.422Z,20.70
2023-08-26T06:20:15.264Z,20.70
2023-08-26T06:22:43.877Z,20.70
2023-08-26T06:25:12.038Z,20.70
2023-08-26T06:27:39.431Z,20.70
2023-08-26T06:30:08.274Z,20.80
2023-08-26T06:32:37.250Z,20.80
2023-08-26T06:35:06.349Z,20.80
2023-08-26T06:37:35.180Z,20.90
2023-08-26T06:40:04.578Z,20.90
2023-08-26T06:42:31.977Z,20.90
2023-08-26T06:45:03.498Z,20.90
2023-08-26T06:47:30.916Z,21.00
2023-08-26T06:49:59.621Z,21.00
2023-08-26T06:52:28.815Z,21.00
2023-08-26T06:54:56.146Z,21.10
2023-08-26T06:57:23.551Z,21.10
2023-08-26T06:59:51.096Z,21.10
2023-08-26T07:02:18.384Z,21.10
2023-08-26T07:04:46.054Z,21.10
2023-08-26T07:07:14.769Z,21.10
2023-08-26T07:09:42.412Z,21.10
2023-08-26T07:12:09.771Z,21.20
2023-08-26T07:14:37.080Z,21.20
2023-08-26T07:17:04.461Z,21.20
2023-08-26T07:19:31.762Z,21.20
2023-08-26T07:21:59.114Z,21.20
2023-08-26T07:24:27.733Z,21.20
2023-08-26T07:26:55.068Z,21.20
2023-08-26T07:29:22.483Z,21.20
2023-08-26T07:31:49.817Z,21.20
2023-08-26T07:34:17.132Z,21.30
2023-08-26T07:36:44.514Z,21.30
2023-08-26T07:39:11.850Z,21.40
2023-08-26T07:41:40.506Z,21.40
2023-08-26T07:44:07.832Z,21.40
2023-08-26T07:49:06.395Z,21.50
2023-08-26T07:51:33.772Z,21.50
2023-08-26T07:54:01.091Z,21.50
2023-08-26T07:56:28.382Z,21.60
2023-08-26T07:58:57.083Z,21.60
2023-08-26T08:01:24.463Z,21.60
2023-08-26T08:03:51.983Z,21.60
2023-08-26T08:06:19.368Z,21.70
2023-08-26T08:08:46.736Z,21.70
2023-08-26T08:11:14.023Z,21.70
2023-08-26T08:13:41.329Z,21.70
2023-08-26T08:16:10.055Z,21.80
2023-08-26T08:18:38.254Z,21.80
2023-08-26T08:21:05.631Z,21.80
2023-08-26T08:23:33.028Z,21.80
2023-08-26T08:26:00.336Z,21.90
2023-08-26T08:28:27.688Z,21.90
2023-08-26T08:30:55.058Z,22.00
2023-08-26T08:33:23.791Z,22.00
2023-08-26T08:35:51.819Z,22.00
2023-08-26T08:38:19.228Z,22.00
2023-08-26T08:40:46.714Z,22.10
2023-08-26T08:43:14.821Z,22.20
2023-08-26T08:45:43.222Z,22.20
2023-08-26T08:48:11.072Z,22.30
2023-08-26T08:50:40.423Z,22.40
2023-08-26T08:53:10.339Z,22.40
2023-08-26T08:55:38.578Z,22.50
2023-08-26T08:58:06.223Z,22.60
2023-08-26T09:00:33.766Z,22.60
2023-08-26T09:03:05.258Z,22.70
2023-08-26T09:05:33.235Z,22.70
2023-08-26T09:08:03.381Z,22.70
2023-08-26T09:10:33.039Z,22.70
2023-08-26T09:13:00.552Z,22.70
2023-08-26T09:15:28.317Z,22.70
2023-08-26T09:18:01.604Z,22.80
2023-08-26T09:20:30.713Z,22.70
2023-08-26T09:23:06.211Z,22.80
2023-08-26T09:25:33.824Z,22.80
2023-08-26T09:28:01.278Z,22.80
2023-08-26T09:30:28.682Z,22.80
2023-08-26T09:32:56.350Z,22.80
2023-08-26T09:37:59.424Z,22.90
2023-08-26T09:40:28.639Z,22.90
2023-08-26T09:42:56.460Z,23.00
2023-08-26T09:45:24.434Z,23.00
2023-08-26T09:47:52.322Z,23.10
2023-08-26T09:50:31.409Z,23.10
2023-08-26T09:52:59.378Z,23.20
2023-08-26T09:55:29.023Z,23.20
2023-08-26T09:57:56.634Z,23.20
2023-08-26T10:00:24.566Z,23.30
2023-08-26T10:02:52.906Z,23.40
2023-08-26T10:05:22.975Z,23.50
2023-08-26T10:07:52.472Z,23.70
2023-08-26T10:10:34.123Z,23.70
2023-08-26T10:13:05.178Z,23.90
2023-08-26T10:15:34.521Z,24.00
2023-08-26T10:18:09.453Z,24.10
2023-08-26T10:20:37.658Z,24.20
2023-08-26T10:23:07.222Z,24.40
2023-08-26T10:25:36.250Z,24.50
2023-08-26T10:28:05.132Z,24.70
2023-08-26T10:30:33.198Z,24.90
2023-08-26T10:33:01.997Z,25.00
2023-08-26T10:35:29.844Z,25.20
2023-08-26T10:38:09.508Z,25.30
2023-08-26T10:40:38.277Z,25.50
2023-08-26T10:43:08.335Z,25.70
2023-08-26T10:45:46.211Z,25.80
2023-08-26T10:48:13.531Z,26.00
2023-08-26T10:50:41.790Z,26.10
2023-08-26T10:53:15.221Z,26.20
2023-08-26T10:55:44.404Z,26.20
2023-08-26T10:58:15.576Z,26.30
2023-08-26T11:00:44.361Z,26.40
2023-08-26T11:03:13.661Z,26.60
2023-08-26T11:05:43.424Z,26.70
2023-08-26T11:08:11.472Z,26.70
2023-08-26T11:10:40.449Z,26.60
2023-08-26T11:13:10.621Z,26.80
2023-08-26T11:15:39.912Z,26.90
2023-08-26T11:18:08.606Z,27.00
2023-08-26T11:20:36.954Z,27.20
2023-08-26T11:23:06.384Z,27.30
2023-08-26T11:25:34.903Z,27.40
2023-08-26T11:28:04.325Z,27.60
2023-08-26T11:30:37.296Z,27.80
2023-08-26T11:33:10.946Z,28.00
2023-08-26T11:35:39.517Z,28.30
2023-08-26T11:38:08.497Z,28.50
2023-08-26T11:40:36.392Z,28.80
2023-08-26T11:43:07.657Z,29.00
2023-08-26T11:45:36.612Z,29.00
2023-08-26T11:48:04.667Z,29.10
2023-08-26T11:50:34.454Z,29.30
2023-08-26T11:53:03.880Z,29.30
2023-08-26T11:55:32.061Z,29.10
2023-08-26T11:58:01.317Z,29.10
2023-08-26T12:00:29.237Z,29.10
2023-08-26T12:03:03.860Z,29.00
2023-08-26T12:05:43.208Z,28.90
2023-08-26T12:08:14.888Z,28.80
2023-08-26T12:10:42.605Z,28.80
2023-08-26T12:13:09.995Z,28.60
2023-08-26T12:15:40.673Z,28.70
2023-08-26T12:18:10.558Z,28.90
2023-08-26T12:20:38.631Z,29.00
2023-08-26T12:23:07.120Z,29.10
2023-08-26T12:25:36.623Z,29.10
2023-08-26T12:28:09.617Z,29.10
2023-08-26T12:30:37.676Z,29.30
2023-08-26T12:33:08.155Z,29.50
2023-08-26T12:35:39.438Z,29.80
2023-08-26T12:38:07.363Z,30.20
2023-08-26T12:40:35.974Z,30.60
2023-08-26T12:43:05.386Z,31.00
2023-08-26T12:45:34.010Z,31.40
2023-08-26T12:48:01.957Z,31.80
2023-08-26T12:50:29.311Z,32.10
2023-08-26T12:52:58.007Z,32.50
2023-08-26T12:55:25.623Z,32.70
2023-08-26T12:57:53.364Z,33.00
2023-08-26T13:00:20.857Z,33.30
2023-08-26T13:02:49.463Z,33.50
2023-08-26T13:05:16.974Z,33.70
2023-08-26T13:07:45.389Z,33.80
2023-08-26T13:10:14.201Z,33.80
2023-08-26T13:12:44.646Z,33.90
2023-08-26T13:15:13.552Z,33.70
2023-08-26T13:17:41.114Z,33.70
2023-08-26T13:20:11.920Z,33.70
2023-08-26T13:22:40.337Z,33.50
2023-08-26T13:25:09.528Z,33.40
2023-08-26T13:27:38.252Z,33.30
2023-08-26T13:30:06.850Z,33.40
2023-08-26T13:32:34.200Z,33.30
2023-08-26T13:35:01.594Z,33.40
2023-08-26T13:37:29.032Z,33.30
2023-08-26T13:39:56.501Z,33.40
2023-08-26T13:42:23.949Z,33.50
2023-08-26T13:44:52.652Z,33.50
2023-08-26T13:47:21.535Z,33.60
2023-08-26T13:49:49.955Z,33.60
2023-08-26T13:52:18.161Z,33.40
2023-08-26T13:54:45.621Z,33.30
2023-08-26T13:57:13.240Z,33.30
2023-08-26T13:59:40.738Z,33.30
2023-08-26T14:02:09.445Z,33.00
2023-08-26T14:04:36.821Z,32.70
2023-08-26T14:07:04.571Z,32.30
2023-08-26T14:09:32.080Z,32.00
2023-08-26T14:12:00.948Z,31.80
2023-08-26T14:14:28.424Z,31.70
2023-08-26T14:16:55.879Z,31.50
2023-08-26T14:19:24.631Z,31.10
2023-08-26T14:21:51.953Z,30.80
2023-08-26T14:24:19.352Z,30.50
2023-08-26T14:26:47.007Z,30.20
2023-08-26T14:29:14.484Z,30.00
2023-08-26T14:31:41.903Z,29.80
2023-08-26T14:34:10.908Z,29.50
2023-08-26T14:36:41.219Z,29.30
2023-08-26T14:39:10.380Z,29.10
2023-08-26T14:41:37.803Z,28.90
2023-08-26T14:44:06.188Z,28.80
2023-08-26T14:46:33.990Z,28.60
2023-08-26T14:49:01.482Z,28.20
2023-08-26T14:51:28.955Z,28.10
2023-08-26T14:53:57.640Z,27.90
2023-08-26T14:56:25.250Z,27.80
2023-08-26T14:58:52.615Z,27.60
2023-08-26T15:01:20.347Z,27.60
2023-08-26T15:03:48.616Z,27.60
2023-08-26T15:06:16.256Z,27.40
2023-08-26T15:08:43.728Z,27.20
2023-08-26T15:11:12.381Z,26.90
2023-08-26T15:13:39.751Z,26.80
2023-08-26T15:16:07.142Z,26.70
2023-08-26T15:18:34.624Z,26.60
2023-08-26T15:21:02.190Z,26.50
2023-08-26T15:23:29.664Z,26.20
2023-08-26T15:25:57.180Z,26.00
2023-08-26T15:28:25.860Z,25.90
2023-08-26T15:30:54.488Z,25.80
2023-08-26T15:33:22.997Z,25.70
2023-08-26T15:35:50.908Z,25.70
2023-08-26T15:38:18.568Z,25.60
2023-08-26T15:40:52.052Z,25.40
2023-08-26T15:43:19.418Z,25.30
2023-08-26T15:45:48.179Z,25.20
2023-08-26T15:48:15.803Z,25.10
2023-08-26T15:50:43.843Z,25.10
2023-08-26T15:53:13.392Z,25.00
2023-08-26T15:55:40.877Z,25.00
2023-08-26T15:58:08.308Z,24.90
2023-08-26T16:00:36.135Z,24.80
2023-08-26T16:03:05.593Z,24.80
2023-08-26T16:05:34.118Z,24.70
2023-08-26T16:08:01.660Z,24.70
2023-08-26T16:10:29.315Z,24.60
2023-08-26T16:12:56.917Z,24.60
2023-08-26T16:15:24.595Z,24.50
2023-08-26T16:17:52.171Z,24.40
2023-08-26T16:20:20.918Z,24.40
2023-08-26T16:22:48.286Z,24.40
2023-08-26T16:25:15.774Z,24.30
2023-08-26T16:27:43.421Z,24.20
2023-08-26T16:30:11.514Z,24.20
2023-08-26T16:32:38.936Z,24.20
2023-08-26T16:35:07.372Z,24.10
2023-08-26T16:37:36.248Z,24.10
2023-08-26T16:40:04.106Z,24.00
2023-08-26T16:42:31.566Z,24.00
2023-08-26T16:44:58.915Z,23.80
2023-08-26T16:47:26.458Z,23.80
2023-08-26T16:49:53.840Z,23.70
2023-08-26T16:52:21.609Z,23.70
2023-08-26T16:54:52.160Z,23.70
2023-08-26T16:57:20.103Z,23.60
2023-08-26T16:59:47.652Z,23.50
2023-08-26T17:02:15.803Z,23.50
2023-08-26T17:04:43.365Z,23.40
2023-08-26T17:07:14.008Z,23.40
2023-08-26T17:09:41.762Z,23.30
2023-08-26T17:12:10.523Z,23.20
2023-08-26T17:14:38.024Z,23.20
2023-08-26T17:17:05.684Z,23.20
2023-08-26T17:19:36.073Z,23.10
2023-08-26T17:22:16.915Z,23.10
2023-08-26T17:24:46.740Z,23.10
2023-08-26T17:27:15.827Z,23.00
2023-08-26T17:29:43.177Z,23.00
2023-08-26T17:32:12.568Z,22.90
2023-08-26T17:34:40.663Z,22.90
2023-08-26T17:37:08.029Z,22.90
2023-08-26T17:39:35.371Z,22.80
2023-08-26T17:42:04.724Z,22.80
2023-08-26T17:44:34.133Z,22.80
2023-08-26T17:47:01.439Z,22.70
2023-08-26T17:49:28.847Z,22.70
2023-08-26T17:51:56.500Z,22.70
2023-08-26T17:54:23.886Z,22.60
2023-08-26T17:56:51.182Z,22.60
2023-08-26T17:59:18.576Z,22.60
2023-08-26T18:01:47.260Z,22.50
2023-08-26T18:04:14.696Z,22.50
2023-08-26T18:06:43.578Z,22.40
2023-08-26T18:09:12.395Z,22.30
2023-08-26T18:11:39.773Z,22.20
2023-08-26T18:14:07.103Z,22.20
2023-08-26T18:16:34.472Z,22.10
2023-08-26T18:19:03.145Z,22.00
2023-08-26T18:21:30.517Z,22.00
2023-08-26T18:23:57.850Z,22.00
2023-08-26T18:26:25.147Z,22.00
2023-08-26T18:28:52.514Z,21.90
2023-08-26T18:31:19.872Z,21.90
2023-08-26T18:33:47.728Z,21.80
2023-08-26T18:36:16.483Z,21.80
2023-08-26T18:38:43.990Z,21.70
2023-08-26T18:41:11.308Z,21.70
2023-08-26T18:43:38.728Z,21.70
2023-08-26T18:46:06.064Z,21.70
2023-08-26T18:48:33.422Z,21.70
2023-08-26T18:51:02.175Z,21.60
2023-08-26T18:53:32.790Z,21.60
2023-08-26T18:56:01.022Z,21.50
2023-08-26T18:58:28.512Z,21.50
2023-08-26T19:00:57.148Z,21.40
2023-08-26T19:03:24.680Z,21.40
2023-08-26T19:05:52.623Z,21.40
2023-08-26T19:08:20.232Z,21.40
2023-08-26T19:10:49.171Z,21.30
2023-08-26T19:13:16.563Z,21.30
2023-08-26T19:15:44.042Z,21.30
2023-08-26T19:18:11.427Z,21.30
2023-08-26T19:20:39.149Z,21.20
2023-08-26T19:23:07.261Z,21.20
2023-08-26T19:25:35.567Z,21.20
2023-08-26T19:28:04.739Z,21.10
2023-08-26T19:30:32.442Z,21.10
2023-08-26T19:33:00.152Z,21.10
2023-08-26T19:35:27.874Z,21.00
2023-08-26T19:37:55.238Z,21.00
2023-08-26T19:40:22.567Z,21.00
2023-08-26T19:42:49.935Z,20.90
2023-08-26T19:45:19.544Z,20.90
2023-08-26T19:47:47.062Z,20.90
2023-08-26T19:50:15.533Z,20.90
2023-08-26T19:52:44.465Z,20.80
2023-08-26T19:55:12.203Z,20.80
2023-08-26T19:57:42.081Z,20.80
2023-08-26T20:00:11.980Z,20.80
2023-08-26T20:02:44.427Z,20.70
2023-08-26T20:05:11.799Z,20.70
2023-08-26T20:07:39.159Z,20.60
2023-08-26T20:10:07.784Z,20.60
2023-08-26T20:12:35.164Z,20.60
2023-08-26T20:15:03.987Z,20.60
2023-08-26T20:17:32.317Z,20.60
2023-08-26T20:20:01.128Z,20.60
2023-08-26T20:22:28.561Z,20.50
2023-08-26T20:24:57.881Z,20.50
2023-08-26T20:27:25.207Z,20.50
2023-08-26T20:29:52.683Z,20.50
2023-08-26T20:32:19.984Z,20.50
2023-08-26T20:34:47.291Z,20.60
2023-08-26T20:37:16.002Z,20.50
2023-08-26T20:39:44.234Z,20.50
2023-08-26T20:42:11.688Z,20.50
2023-08-26T20:44:39.222Z,20.50
2023-08-26T20:47:06.748Z,20.50
2023-08-26T20:49:34.095Z,20.40
2023-08-26T20:52:01.497Z,20.50
2023-08-26T20:54:30.180Z,20.40
2023-08-26T20:56:57.532Z,20.40
2023-08-26T20:59:25.676Z,20.40
2023-08-26T21:01:53.246Z,20.40
2023-08-26T21:04:20.712Z,20.40
2023-08-26T21:06:48.098Z,20.40
2023-08-26T21:09:15.870Z,20.40
2023-08-26T21:11:46.294Z,20.40
2023-08-26T21:14:13.651Z,20.40
2023-08-26T21:16:40.994Z,20.30
2023-08-26T21:19:08.585Z,20.30
2023-08-26T21:21:35.927Z,20.30
2023-08-26T21:24:03.714Z,20.20
2023-08-26T21:26:31.106Z,20.20
2023-08-26T21:28:59.809Z,20.10
2023-08-26T21:31:27.352Z,20.10
2023-08-26T21:33:54.784Z,20.00
2023-08-26T21:36:23.482Z,20.00
2023-08-26T21:38:51.039Z,20.00
2023-08-26T21:41:18.360Z,19.90
2023-08-26T21:43:45.846Z,19.90
2023-08-26T21:46:14.606Z,19.80
2023-08-26T21:48:42.035Z,19.80
2023-08-26T21:51:09.412Z,19.70
2023-08-26T21:53:36.693Z,19.70
2023-08-26T21:56:04.333Z,19.60
2023-08-26T21:58:31.645Z,19.60
2023-08-26T22:01:00.749Z,19.60
2023-08-26T22:03:29.494Z,19.60
2023-08-26T22:05:56.907Z,19.60
2023-08-26T22:08:25.123Z,19.60
2023-08-26T22:10:52.483Z,19.60
2023-08-26T22:13:21.862Z,19.50
2023-08-26T22:15:51.636Z,19.50
2023-08-26T22:18:19.063Z,19.50
2023-08-26T22:20:47.748Z,19.50
2023-08-26T22:23:15.076Z,19.60
2023-08-26T22:25:42.388Z,19.60
2023-08-26T22:28:09.752Z,19.60
2023-08-26T22:30:37.921Z,19.60
2023-08-26T22:33:06.311Z,19.60
2023-08-26T22:35:33.759Z,19.60
2023-08-26T22:38:05.054Z,19.60
2023-08-26T22:40:32.511Z,19.60
2023-08-26T22:43:00.143Z,19.50
2023-08-26T22:45:27.751Z,19.50
2023-08-26T22:47:55.182Z,19.50
2023-08-26T22:50:22.496Z,19.40
2023-08-26T22:52:49.936Z,19.40
2023-08-26T22:55:18.822Z,19.40
2023-08-26T22:57:46.612Z,19.40
2023-08-26T23:00:14.538Z,19.40
2023-08-26T23:02:41.943Z,19.40
2023-08-26T23:05:09.435Z,19.30
2023-08-26T23:07:36.846Z,19.30
2023-08-26T23:10:05.698Z,19.30
2023-08-26T23:12:34.653Z,19.30
2023-08-26T23:15:02.137Z,19.30
2023-08-26T23:17:29.563Z,19.30
2023-08-26T23:19:57.156Z,19.30
2023-08-26T23:22:24.653Z,19.30
2023-08-26T23:24:51.926Z,19.30
2023-08-26T23:27:20.544Z,19.20
2023-08-26T23:29:49.498Z,19.20
2023-08-26T23:32:17.493Z,19.20
2023-08-26T23:34:45.016Z,19.10
2023-08-26T23:37:12.332Z,19.10
2023-08-26T23:39:39.620Z,19.10
2023-08-26T23:42:07.284Z,19.10
2023-08-26T23:44:34.625Z,19.00
2023-08-26T23:47:03.340Z,19.00
2023-08-26T23:49:31.141Z,19.00
2023-08-26T23:51:58.438Z,19.00
2023-08-26T23:54:25.733Z,19.00
2023-08-26T23:56:53.415Z,18.90
2023-08-26T23:59:20.751Z,18.90
